Weatherford, OK

6:14 AM CDT on August 23, 2017 (GMT -0500)
Weatherford | | Change Station

Elev 1604 ft 35.54 °N, 98.67 °W | Updated 19 minutes ago

Overcast
Overcast
70 °F
Feels Like 70 °F
N
7
Wind Variable Wind from NE

Today
High -- | Low -- °F
--% Chance of Precip.
Yesterday
High -- | Low -- °F
Precip. -- in
Pressure 30.11 in
Visibility 10.0 miles
Clouds Scattered Clouds 600 ft
Overcast 1400 ft
Dew Point 70 °F
Humidity 100%
Rainfall 0.00 in
Snow Depth Not available.
7:00 AM 8:13 PM
Waxing Crescent, 4% visible
METAR KOJA 231055Z AUTO 04006KT 10SM SCT006 OVC014 21/21 A3011 RMK AO2 LTG DSNT W
Pressure 30.11 in
Visibility 10.0 miles
Clouds Scattered Clouds 600 ft
Overcast 1400 ft
Dew Point 70 °F
Humidity 100%
Rainfall 0.00 in
Snow Depth Not available.
7:00 AM 8:13 PM
Waxing Crescent, 4% visible
METAR KOJA 231055Z AUTO 04006KT 10SM SCT006 OVC014 21/21 A3011 RMK AO2 LTG DSNT W

Get Severe Weather Alerts

Thanks for signing up!

Be on the lookout for a verification email in your inbox.

You'll start receiving the daily forecast at 6 AM.

×

10-Day Weather Forecast

Almanac

Astronomy

Aug. 23, 2017 Rise Set
Actual Time
Civil Twilight
Nautical Twilight
Astronomical Twilight
Moon
Length of Visible Light
Length of Day
Tomorrow will be .
, % of the Moon is Illuminated

Today's Extremes

State Highs State Lows

Community

WunderPhotos

Category 6

Welcome to Category 6. This is the collective home for Weather Underground's featured writeups by Dr. Jeff Masters (right), Bob Henson (left), Chris Burt, and other regular contributors.

Nearby

Air Quality

  Air Quality AQ Index Pollutant
Not available.

Snow Depth

Station Depth Elevation

Earthquake Activity

City Distance Mag. Time & Date
Minimum magnitude displayed is 2.5.

Coastal Water Temperatures

Place Temperature

Stations

Nearby Weather Stations

Station Location Temp. Windchill Dew Point Humidity Wind Precip. Elev Updated Type
                   

Watches & Warnings

There are currently no watches in effect.